createdAt,value
2017-07-25T00:00:06.567Z,0
2017-07-25T00:01:06.285Z,0
2017-07-25T00:02:06.517Z,0
2017-07-25T00:03:06.477Z,0
2017-07-25T00:04:06.484Z,0
2017-07-25T00:05:06.158Z,0
2017-07-25T00:06:05.827Z,0
2017-07-25T00:07:06.426Z,0
2017-07-25T00:08:06.085Z,0
2017-07-25T00:09:06.103Z,0
2017-07-25T00:10:06.062Z,0
2017-07-25T00:11:06.166Z,0
2017-07-25T00:12:06.395Z,0
2017-07-25T00:13:05.207Z,0
2017-07-25T00:14:06.364Z,0
2017-07-25T00:15:05.999Z,0
2017-07-25T00:16:05.662Z,0
2017-07-25T00:17:05.769Z,0
2017-07-25T00:18:06.302Z,0
2017-07-25T00:19:06.006Z,0
2017-07-25T00:20:05.629Z,0
2017-07-25T00:21:05.957Z,0
2017-07-25T00:22:05.877Z,0
2017-07-25T00:23:05.876Z,0
2017-07-25T00:24:05.855Z,0
2017-07-25T00:25:05.601Z,0
2017-07-25T00:26:05.497Z,0
2017-07-25T00:27:06.107Z,0
2017-07-25T00:28:05.793Z,0
2017-07-25T00:29:06.147Z,0
2017-07-25T00:30:06.131Z,0
2017-07-25T00:31:06.146Z,0
2017-07-25T00:32:05.412Z,0
2017-07-25T00:33:06.088Z,0
2017-07-25T00:34:05.697Z,0
2017-07-25T00:35:05.689Z,0
2017-07-25T00:36:05.327Z,0
2017-07-25T00:37:05.337Z,0
2017-07-25T00:38:05.719Z,0
2017-07-25T00:39:05.605Z,0
2017-07-25T00:40:05.698Z,0
2017-07-25T00:41:05.566Z,0
2017-07-25T00:42:05.541Z,0
2017-07-25T00:43:05.539Z,0
2017-07-25T00:44:05.568Z,0
2017-07-25T00:45:05.570Z,0
2017-07-25T00:46:05.494Z,0
2017-07-25T00:47:05.495Z,0
2017-07-25T00:48:05.224Z,0
2017-07-25T00:49:05.925Z,0
2017-07-25T00:50:05.095Z,0
2017-07-25T00:51:05.409Z,0
2017-07-25T00:52:05.077Z,0
2017-07-25T00:53:04.897Z,0
2017-07-25T00:54:05.075Z,0
2017-07-25T00:55:05.325Z,0
2017-07-25T00:56:05.123Z,0
2017-07-25T00:57:05.108Z,0
2017-07-25T00:58:05.004Z,0
2017-07-25T00:59:05.612Z,0
2017-07-25T01:00:04.960Z,0
2017-07-25T01:01:05.539Z,0
2017-07-25T01:02:04.619Z,0
2017-07-25T01:03:05.207Z,0
2017-07-25T01:04:04.898Z,0
2017-07-25T01:05:05.167Z,0
2017-07-25T01:06:04.547Z,0
2017-07-25T01:07:04.538Z,0
2017-07-25T01:08:05.127Z,0
2017-07-25T01:09:04.868Z,0
2017-07-25T01:10:04.849Z,0
2017-07-25T01:11:05.393Z,0
2017-07-25T01:12:05.068Z,0
2017-07-25T01:13:05.389Z,0
2017-07-25T01:14:05.029Z,0
2017-07-25T01:15:05.048Z,0
2017-07-25T01:16:05.024Z,0
2017-07-25T01:17:04.996Z,0
2017-07-25T01:18:04.978Z,0
2017-07-25T01:19:04.996Z,0
2017-07-25T01:20:04.947Z,0
2017-07-25T01:21:04.618Z,0
2017-07-25T01:22:04.896Z,0
2017-07-25T01:23:04.258Z,0
2017-07-25T01:24:05.166Z,0
2017-07-25T01:25:05.156Z,0
2017-07-25T01:26:04.826Z,0
2017-07-25T01:27:05.135Z,0
2017-07-25T01:28:04.819Z,0
2017-07-25T01:29:05.137Z,0
2017-07-25T01:30:05.086Z,0
2017-07-25T01:31:05.066Z,0
2017-07-25T01:32:05.045Z,0
2017-07-25T01:33:05.036Z,0
2017-07-25T01:34:05.008Z,0
2017-07-25T01:35:04.695Z,0
2017-07-25T01:36:04.987Z,0
2017-07-25T01:37:04.977Z,0
2017-07-25T01:38:04.958Z,0
2017-07-25T01:39:04.920Z,0
2017-07-25T01:40:04.669Z,0
2017-07-25T01:41:04.907Z,0
2017-07-25T01:42:04.597Z,0
2017-07-25T01:43:04.892Z,0
2017-07-25T01:44:04.867Z,0
2017-07-25T01:45:04.837Z,0
2017-07-25T01:46:04.517Z,0
2017-07-25T01:47:04.810Z,0
2017-07-25T01:48:04.480Z,0
2017-07-25T01:49:04.788Z,0
2017-07-25T01:50:04.748Z,0
2017-07-25T01:51:04.750Z,0
2017-07-25T01:52:04.399Z,0
2017-07-25T01:53:04.698Z,0
2017-07-25T01:54:04.369Z,0
2017-07-25T01:55:04.368Z,0
2017-07-25T01:56:04.132Z,0
2017-07-25T01:57:04.318Z,0
2017-07-25T01:58:04.609Z,0
2017-07-25T01:59:04.368Z,0
2017-07-25T02:00:04.319Z,0
2017-07-25T02:01:04.278Z,0
2017-07-25T02:02:04.248Z,0
2017-07-25T02:03:04.546Z,0
2017-07-25T02:04:03.918Z,0
2017-07-25T02:05:04.192Z,0
2017-07-25T02:06:04.481Z,0
2017-07-25T02:07:04.166Z,0
2017-07-25T02:08:04.434Z,0
2017-07-25T02:09:04.118Z,0
2017-07-25T02:10:03.808Z,0
2017-07-25T02:11:04.397Z,0
2017-07-25T02:12:04.378Z,0
2017-07-25T02:13:03.776Z,0
2017-07-25T02:14:04.363Z,0
2017-07-25T02:15:03.827Z,0
2017-07-25T02:16:03.416Z,0
2017-07-25T02:17:04.076Z,0
2017-07-25T02:18:03.423Z,0
2017-07-25T02:19:03.968Z,0
2017-07-25T02:20:03.649Z,0
2017-07-25T02:21:04.578Z,0
2017-07-25T02:22:03.617Z,0
2017-07-25T02:23:03.944Z,0
2017-07-25T02:24:04.208Z,0
2017-07-25T02:25:04.167Z,0
2017-07-25T02:26:03.531Z,0
2017-07-25T02:27:03.857Z,0
2017-07-25T02:28:03.815Z,0
2017-07-25T02:29:03.801Z,0
2017-07-25T02:30:03.786Z,0
2017-07-25T02:31:04.066Z,0
2017-07-25T02:32:03.779Z,0
2017-07-25T02:33:03.730Z,0
2017-07-25T02:34:03.727Z,0
2017-07-25T02:35:04.068Z,0
2017-07-25T02:36:03.680Z,0
2017-07-25T02:37:03.966Z,0
2017-07-25T02:38:03.659Z,0
2017-07-25T02:39:03.626Z,0
2017-07-25T02:40:03.640Z,0
2017-07-25T02:41:03.611Z,0
2017-07-25T02:42:03.946Z,0
2017-07-25T02:43:03.288Z,0
2017-07-25T02:44:03.669Z,0
2017-07-25T02:45:03.877Z,0
2017-07-25T02:46:03.548Z,0
2017-07-25T02:47:03.196Z,0
2017-07-25T02:48:02.901Z,0
2017-07-25T02:49:03.897Z,0
2017-07-25T02:50:02.856Z,0
2017-07-25T02:51:03.749Z,0
2017-07-25T02:52:03.818Z,0
2017-07-25T02:53:03.408Z,0
2017-07-25T02:54:03.693Z,0
2017-07-25T02:55:03.068Z,0
2017-07-25T02:56:03.378Z,0
2017-07-25T02:57:03.498Z,0
2017-07-25T02:58:03.440Z,0
2017-07-25T02:59:03.637Z,0
2017-07-25T03:00:03.599Z,0
2017-07-25T03:01:03.270Z,0
2017-07-25T03:02:03.268Z,0
2017-07-25T03:03:02.948Z,0
2017-07-25T03:04:03.237Z,0
2017-07-25T03:05:03.221Z,0
2017-07-25T03:06:03.586Z,0
2017-07-25T03:07:02.862Z,0
2017-07-25T03:08:03.559Z,0
2017-07-25T03:09:03.215Z,0
2017-07-25T03:10:02.817Z,0
2017-07-25T03:11:03.519Z,0
2017-07-25T03:12:02.471Z,0
2017-07-25T03:13:02.768Z,0
2017-07-25T03:14:02.771Z,0
2017-07-25T03:15:03.149Z,0
2017-07-25T03:16:02.744Z,0
2017-07-25T03:17:03.041Z,0
2017-07-25T03:18:02.707Z,0
2017-07-25T03:19:02.998Z,0
2017-07-25T03:20:02.664Z,0
2017-07-25T03:21:02.648Z,0
2017-07-25T03:22:02.637Z,0
2017-07-25T03:23:02.929Z,0
2017-07-25T03:24:02.586Z,0
2017-07-25T03:25:02.895Z,0
2017-07-25T03:26:02.873Z,0
2017-07-25T03:27:02.548Z,0
2017-07-25T03:28:02.842Z,0
2017-07-25T03:29:02.822Z,0
2017-07-25T03:30:02.177Z,0
2017-07-25T03:31:02.486Z,0
2017-07-25T03:32:02.453Z,0
2017-07-25T03:33:02.749Z,0
2017-07-25T03:34:02.719Z,0
2017-07-25T03:35:02.102Z,0
2017-07-25T03:36:02.509Z,0
2017-07-25T03:37:02.690Z,0
2017-07-25T03:38:03.029Z,0
2017-07-25T03:39:02.654Z,0
2017-07-25T03:40:02.663Z,0
2017-07-25T03:41:02.609Z,0
2017-07-25T03:42:02.346Z,0
2017-07-25T03:43:02.592Z,0
2017-07-25T03:44:01.950Z,0
2017-07-25T03:45:02.546Z,0
2017-07-25T03:46:02.539Z,0
2017-07-25T03:47:02.830Z,0
2017-07-25T03:48:02.203Z,0
2017-07-25T03:49:01.563Z,0
2017-07-25T03:50:02.476Z,0
2017-07-25T03:51:02.473Z,0
2017-07-25T03:52:02.727Z,0
2017-07-25T03:53:02.439Z,0
2017-07-25T03:54:02.410Z,0
2017-07-25T03:55:02.723Z,0
2017-07-25T03:56:02.367Z,0
2017-07-25T03:57:02.350Z,0
2017-07-25T03:58:02.022Z,0
2017-07-25T03:59:02.643Z,0
2017-07-25T04:00:02.719Z,0
2017-07-25T04:01:02.308Z,0
2017-07-25T04:02:02.296Z,0
2017-07-25T04:03:02.561Z,0
2017-07-25T04:04:02.542Z,0
2017-07-25T04:05:02.537Z,0
2017-07-25T04:06:02.536Z,0
2017-07-25T04:07:02.508Z,0
2017-07-25T04:08:02.542Z,0
2017-07-25T04:09:02.470Z,0
2017-07-25T04:10:02.468Z,0
2017-07-25T04:11:02.437Z,0
2017-07-25T04:12:02.438Z,0
2017-07-25T04:13:02.427Z,0
2017-07-25T04:14:02.072Z,0
2017-07-25T04:15:02.389Z,0
2017-07-25T04:16:02.350Z,0
2017-07-25T04:17:02.036Z,0
2017-07-25T04:18:02.302Z,0
2017-07-25T04:19:01.982Z,0
2017-07-25T04:20:01.982Z,0
2017-07-25T04:21:02.303Z,0
2017-07-25T04:22:01.950Z,0
2017-07-25T04:23:01.942Z,0
2017-07-25T04:24:01.912Z,0
2017-07-25T04:25:01.889Z,0
2017-07-25T04:26:01.879Z,0
2017-07-25T04:27:01.258Z,0
2017-07-25T04:28:01.528Z,5
2017-07-25T04:29:02.128Z,5
2017-07-25T04:30:01.830Z,5
2017-07-25T04:31:01.800Z,5
2017-07-25T04:32:02.096Z,5
2017-07-25T04:33:01.604Z,5
2017-07-25T04:34:01.741Z,5
2017-07-25T04:35:01.418Z,5
2017-07-25T04:36:02.036Z,5
2017-07-25T04:37:02.030Z,5
2017-07-25T04:38:01.979Z,5
2017-07-25T04:39:01.969Z,5
2017-07-25T04:40:01.428Z,5
2017-07-25T04:41:01.730Z,0
2017-07-25T04:42:01.309Z,5
2017-07-25T04:43:01.398Z,5
2017-07-25T04:44:01.293Z,5
2017-07-25T04:45:01.566Z,5
2017-07-25T04:46:00.952Z,5
2017-07-25T04:47:01.240Z,5
2017-07-25T04:48:01.816Z,5
2017-07-25T04:49:01.213Z,5
2017-07-25T04:50:01.800Z,5
2017-07-25T04:51:01.492Z,5
2017-07-25T04:52:01.456Z,5
2017-07-25T04:53:01.456Z,5
2017-07-25T04:54:01.458Z,5
2017-07-25T04:55:01.419Z,5
2017-07-25T04:56:01.390Z,5
2017-07-25T04:57:01.669Z,5
2017-07-25T04:58:01.659Z,5
2017-07-25T04:59:01.650Z,5
2017-07-25T05:00:01.331Z,5
2017-07-25T05:01:01.627Z,5
2017-07-25T05:02:00.999Z,5
2017-07-25T05:03:01.352Z,5
2017-07-25T05:04:01.283Z,5
2017-07-25T05:05:01.268Z,10
2017-07-25T05:06:01.225Z,10
2017-07-25T05:07:01.294Z,10
2017-07-25T05:08:01.508Z,10
2017-07-25T05:09:01.486Z,5
2017-07-25T05:10:01.161Z,5
2017-07-25T05:11:01.153Z,5
2017-07-25T05:12:01.198Z,5
2017-07-25T05:13:01.120Z,5
2017-07-25T05:14:00.810Z,5
2017-07-25T05:15:01.094Z,5
2017-07-25T05:16:01.078Z,5
2017-07-25T05:17:01.369Z,5
2017-07-25T05:18:01.358Z,5
2017-07-25T05:19:01.321Z,5
2017-07-25T05:20:01.060Z,5
2017-07-25T05:21:01.291Z,5
2017-07-25T05:22:01.274Z,10
2017-07-25T05:23:00.968Z,10
2017-07-25T05:24:01.229Z,10
2017-07-25T05:25:01.242Z,10
2017-07-25T05:26:00.596Z,10
2017-07-25T05:27:01.246Z,10
2017-07-25T05:28:00.905Z,10
2017-07-25T05:29:01.168Z,15
2017-07-25T05:29:59.921Z,15
2017-07-25T05:31:00.848Z,15
2017-07-25T05:32:00.861Z,15
2017-07-25T05:33:00.500Z,15
2017-07-25T05:34:00.784Z,15
2017-07-25T05:35:00.745Z,15
2017-07-25T05:36:00.441Z,15
2017-07-25T05:37:00.739Z,15
2017-07-25T05:38:00.718Z,15
2017-07-25T05:39:00.429Z,20
2017-07-25T05:40:00.400Z,20
2017-07-25T05:41:00.758Z,20
2017-07-25T05:42:00.349Z,20
2017-07-25T05:43:00.739Z,15
2017-07-25T05:44:00.609Z,15
2017-07-25T05:44:59.990Z,15
2017-07-25T05:46:00.591Z,15
2017-07-25T05:47:00.009Z,15
2017-07-25T05:48:00.878Z,15
2017-07-25T05:49:00.554Z,20
2017-07-25T05:50:00.842Z,20
2017-07-25T05:51:00.601Z,20
2017-07-25T05:52:00.801Z,20
2017-07-25T05:53:00.482Z,20
2017-07-25T05:54:00.163Z,25
2017-07-25T05:55:00.212Z,25
2017-07-25T05:56:00.132Z,25
2017-07-25T05:57:00.132Z,25
2017-07-25T05:58:00.390Z,25
2017-07-25T05:59:00.421Z,25
2017-07-25T06:00:00.369Z,25
2017-07-25T06:01:00.400Z,25
2017-07-25T06:02:00.323Z,25
2017-07-25T06:03:00.329Z,25
2017-07-25T06:04:00.289Z,25
2017-07-25T06:05:00.328Z,25
2017-07-25T06:06:00.326Z,20
2017-07-25T06:07:00.272Z,20
2017-07-25T06:08:00.231Z,20
2017-07-25T06:08:59.946Z,20
2017-07-25T06:10:00.552Z,20
2017-07-25T06:10:59.880Z,20
2017-07-25T06:11:59.898Z,20
2017-07-25T06:13:00.216Z,20
2017-07-25T06:14:00.202Z,20
2017-07-25T06:15:00.429Z,20
2017-07-25T06:15:59.817Z,20
2017-07-25T06:16:59.478Z,20
2017-07-25T06:18:00.080Z,20
2017-07-25T06:19:00.050Z,20
2017-07-25T06:20:00.357Z,20
2017-07-25T06:21:00.071Z,25
2017-07-25T06:22:00.319Z,25
2017-07-25T06:23:00.011Z,25
2017-07-25T06:24:00.299Z,25
2017-07-25T06:25:00.273Z,25
2017-07-25T06:25:59.993Z,25
2017-07-25T06:27:00.260Z,25
2017-07-25T06:28:00.013Z,25
2017-07-25T06:28:59.912Z,25
2017-07-25T06:29:59.578Z,25
2017-07-25T06:31:00.219Z,25
2017-07-25T06:31:59.540Z,25
2017-07-25T06:32:59.848Z,25
2017-07-25T06:34:00.129Z,30
2017-07-25T06:35:00.139Z,30
2017-07-25T06:36:00.100Z,35
2017-07-25T06:37:00.084Z,35
2017-07-25T06:38:00.055Z,35
2017-07-25T06:38:59.538Z,35
2017-07-25T06:40:00.037Z,35
2017-07-25T06:41:00.024Z,35
2017-07-25T06:41:59.998Z,35
2017-07-25T06:42:59.970Z,30
2017-07-25T06:43:59.649Z,30
2017-07-25T06:44:59.667Z,25
2017-07-25T06:45:59.609Z,25
2017-07-25T06:46:59.605Z,25
2017-07-25T06:47:59.922Z,20
2017-07-25T06:48:59.259Z,20
2017-07-25T06:49:59.559Z,20
2017-07-25T06:50:59.851Z,20
2017-07-25T06:51:59.525Z,25
2017-07-25T06:52:59.821Z,25
2017-07-25T06:53:59.800Z,25
2017-07-25T06:54:59.786Z,25
2017-07-25T06:55:59.770Z,25
2017-07-25T06:56:59.769Z,25
2017-07-25T06:57:58.818Z,25
2017-07-25T06:58:58.901Z,25
2017-07-25T06:59:59.398Z,30
2017-07-25T07:00:59.367Z,30
2017-07-25T07:01:59.378Z,30
2017-07-25T07:02:59.374Z,35
2017-07-25T07:03:59.663Z,35
2017-07-25T07:04:59.627Z,35
2017-07-25T07:05:59.609Z,35
2017-07-25T07:06:59.589Z,35
2017-07-25T07:07:59.581Z,35
2017-07-25T07:08:59.252Z,30
2017-07-25T07:09:59.240Z,30
2017-07-25T07:10:58.918Z,35
2017-07-25T07:11:58.943Z,30
2017-07-25T07:12:59.198Z,30
2017-07-25T07:13:59.031Z,35
2017-07-25T07:14:59.461Z,35
2017-07-25T07:15:58.839Z,35
2017-07-25T07:16:59.102Z,35
2017-07-25T07:17:58.809Z,30
2017-07-25T07:18:58.769Z,30
2017-07-25T07:19:59.084Z,30
2017-07-25T07:20:58.766Z,35
2017-07-25T07:21:58.770Z,35
2017-07-25T07:22:59.339Z,35
2017-07-25T07:23:59.297Z,30
2017-07-25T07:24:58.689Z,30
2017-07-25T07:25:59.002Z,30
2017-07-25T07:26:58.969Z,30
2017-07-25T07:27:58.332Z,30
2017-07-25T07:28:58.939Z,30
2017-07-25T07:29:58.927Z,30
2017-07-25T07:30:59.189Z,30
2017-07-25T07:31:58.897Z,35
2017-07-25T07:32:59.198Z,40
2017-07-25T07:33:58.851Z,40
2017-07-25T07:34:58.524Z,45
2017-07-25T07:35:58.812Z,45
2017-07-25T07:36:58.510Z,45
2017-07-25T07:37:58.789Z,50
2017-07-25T07:38:59.089Z,55
2017-07-25T07:39:58.766Z,65
2017-07-25T07:40:58.726Z,70
2017-07-25T07:41:59.041Z,75
2017-07-25T07:42:58.995Z,80
2017-07-25T07:43:58.681Z,80
2017-07-25T07:44:58.977Z,80
2017-07-25T07:45:58.953Z,80
2017-07-25T07:46:58.969Z,80
2017-07-25T07:47:58.919Z,80
2017-07-25T07:48:58.924Z,70
2017-07-25T07:49:58.629Z,65
2017-07-25T07:50:59.000Z,65
2017-07-25T07:51:58.250Z,70
2017-07-25T07:52:58.859Z,75
2017-07-25T07:53:58.548Z,75
2017-07-25T07:54:58.806Z,70
2017-07-25T07:55:58.248Z,65
2017-07-25T07:56:58.789Z,70
2017-07-25T07:57:58.789Z,75
2017-07-25T07:58:58.471Z,75
2017-07-25T07:59:58.428Z,65
2017-07-25T08:00:58.758Z,55
2017-07-25T08:01:58.109Z,45
2017-07-25T08:02:58.722Z,45
2017-07-25T08:03:58.412Z,45
2017-07-25T08:04:58.446Z,50
2017-07-25T08:05:58.348Z,65
2017-07-25T08:06:58.658Z,75
2017-07-25T08:07:58.339Z,75
2017-07-25T08:08:58.729Z,80
2017-07-25T08:09:57.996Z,80
2017-07-25T08:10:58.576Z,85
2017-07-25T08:11:58.620Z,85
2017-07-25T08:12:58.545Z,95
2017-07-25T08:13:58.231Z,100
2017-07-25T08:14:57.707Z,105
2017-07-25T08:15:58.539Z,100
2017-07-25T08:16:58.225Z,90
2017-07-25T08:17:58.529Z,85
2017-07-25T08:18:57.827Z,90
2017-07-25T08:19:58.468Z,95
2017-07-25T08:20:57.808Z,110
2017-07-25T08:21:58.089Z,115
2017-07-25T08:22:58.067Z,105
2017-07-25T08:23:58.416Z,90
2017-07-25T08:24:58.386Z,90
2017-07-25T08:25:57.774Z,105
2017-07-25T08:26:58.349Z,110
2017-07-25T08:27:58.359Z,110
2017-07-25T08:28:57.683Z,105
2017-07-25T08:29:57.990Z,105
2017-07-25T08:30:57.969Z,95
2017-07-25T08:31:58.306Z,90
2017-07-25T08:32:57.706Z,85
2017-07-25T08:33:57.904Z,90
2017-07-25T08:34:57.913Z,85
2017-07-25T08:35:57.907Z,80
2017-07-25T08:36:57.630Z,80
2017-07-25T08:37:57.855Z,80
2017-07-25T08:38:58.197Z,75
2017-07-25T08:39:57.833Z,70
2017-07-25T08:40:57.810Z,75
2017-07-25T08:41:57.804Z,75
2017-07-25T08:42:57.811Z,75
2017-07-25T08:43:57.463Z,75
2017-07-25T08:44:58.045Z,75
2017-07-25T08:45:58.095Z,75
2017-07-25T08:46:57.508Z,70
2017-07-25T08:47:57.715Z,60
2017-07-25T08:48:57.702Z,55
2017-07-25T08:49:57.973Z,50
2017-07-25T08:50:58.037Z,45
2017-07-25T08:51:57.687Z,60
2017-07-25T08:52:58.022Z,70
2017-07-25T08:53:57.618Z,70
2017-07-25T08:54:57.619Z,70
2017-07-25T08:55:57.594Z,65
2017-07-25T08:56:57.903Z,55
2017-07-25T08:57:57.878Z,50
2017-07-25T08:58:57.857Z,50
2017-07-25T08:59:57.841Z,55
2017-07-25T09:00:57.548Z,65
2017-07-25T09:01:57.511Z,60
2017-07-25T09:02:57.771Z,65
2017-07-25T09:03:57.153Z,80
2017-07-25T09:04:57.787Z,85
2017-07-25T09:05:57.747Z,85
2017-07-25T09:06:57.740Z,80
2017-07-25T09:07:57.722Z,70
2017-07-25T09:08:57.731Z,70
2017-07-25T09:09:57.374Z,75
2017-07-25T09:10:57.680Z,75
2017-07-25T09:11:57.354Z,80
2017-07-25T09:12:57.629Z,95
2017-07-25T09:13:57.356Z,100
2017-07-25T09:14:57.630Z,100
2017-07-25T09:15:57.292Z,100
2017-07-25T09:16:57.592Z,90
2017-07-25T09:17:57.280Z,85
2017-07-25T09:18:57.547Z,90
2017-07-25T09:19:57.257Z,85
2017-07-25T09:20:57.536Z,85
2017-07-25T09:21:57.511Z,85
2017-07-25T09:22:57.198Z,75
2017-07-25T09:23:57.192Z,85
2017-07-25T09:24:57.178Z,70
2017-07-25T09:25:57.138Z,50
2017-07-25T09:26:57.143Z,40
2017-07-25T09:27:57.119Z,30
2017-07-25T09:28:56.817Z,30
2017-07-25T09:29:57.106Z,35
2017-07-25T09:30:57.388Z,45
2017-07-25T09:31:56.746Z,60
2017-07-25T09:32:56.726Z,70
2017-07-25T09:33:57.036Z,70
2017-07-25T09:34:57.329Z,70
2017-07-25T09:35:57.290Z,70
2017-07-25T09:36:57.279Z,70
2017-07-25T09:37:57.284Z,70
2017-07-25T09:38:57.254Z,65
2017-07-25T09:39:57.222Z,60
2017-07-25T09:40:57.246Z,60
2017-07-25T09:41:57.223Z,60
2017-07-25T09:42:57.208Z,60
2017-07-25T09:43:57.200Z,65
2017-07-25T09:44:57.151Z,70
2017-07-25T09:45:56.540Z,70
2017-07-25T09:46:57.165Z,70
2017-07-25T09:47:56.197Z,70
2017-07-25T09:48:57.150Z,65
2017-07-25T09:49:56.815Z,65
2017-07-25T09:50:56.578Z,60
2017-07-25T09:51:57.067Z,60
2017-07-25T09:52:56.440Z,60
2017-07-25T09:53:57.017Z,60
2017-07-25T09:54:56.710Z,60
2017-07-25T09:55:56.986Z,55
2017-07-25T09:56:56.197Z,55
2017-07-25T09:57:56.969Z,50
2017-07-25T09:58:56.651Z,45
2017-07-25T09:59:56.925Z,45
2017-07-25T10:00:56.704Z,45
2017-07-25T10:01:56.616Z,45
2017-07-25T10:02:56.669Z,45
2017-07-25T10:03:56.584Z,50
2017-07-25T10:04:56.359Z,55
2017-07-25T10:05:56.880Z,55
2017-07-25T10:06:56.221Z,60
2017-07-25T10:07:55.906Z,65
2017-07-25T10:08:56.569Z,60
2017-07-25T10:09:56.894Z,60
2017-07-25T10:10:56.568Z,65
2017-07-25T10:11:56.837Z,60
2017-07-25T10:12:56.776Z,60
2017-07-25T10:13:56.472Z,60
2017-07-25T10:14:56.552Z,55
2017-07-25T10:15:55.869Z,50
2017-07-25T10:16:56.734Z,50
2017-07-25T10:17:56.128Z,50
2017-07-25T10:18:56.706Z,50
2017-07-25T10:19:56.659Z,45
2017-07-25T10:20:56.429Z,45
2017-07-25T10:21:56.608Z,35
2017-07-25T10:22:56.357Z,20
2017-07-25T10:23:56.299Z,15
2017-07-25T10:24:56.295Z,15
2017-07-25T10:25:56.237Z,25
2017-07-25T10:26:55.938Z,30
2017-07-25T10:27:55.708Z,35
2017-07-25T10:28:56.528Z,40
2017-07-25T10:29:56.247Z,60
2017-07-25T10:30:56.537Z,75
2017-07-25T10:31:56.473Z,65
2017-07-25T10:32:56.168Z,70
2017-07-25T10:33:56.430Z,70
2017-07-25T10:34:55.828Z,75
2017-07-25T10:35:56.413Z,85
2017-07-25T10:36:56.500Z,85
2017-07-25T10:37:56.367Z,90
2017-07-25T10:38:56.382Z,90
2017-07-25T10:39:56.046Z,95
2017-07-25T10:40:56.048Z,95
2017-07-25T10:41:56.042Z,100
2017-07-25T10:42:56.400Z,115
2017-07-25T10:43:56.314Z,130
2017-07-25T10:44:55.938Z,135
2017-07-25T10:45:56.256Z,140
2017-07-25T10:46:55.639Z,135
2017-07-25T10:47:56.267Z,140
2017-07-25T10:48:55.941Z,130
2017-07-25T10:49:55.918Z,110
2017-07-25T10:50:56.188Z,90
2017-07-25T10:51:55.261Z,85
2017-07-25T10:52:56.159Z,80
2017-07-25T10:53:56.174Z,85
2017-07-25T10:54:55.505Z,95
2017-07-25T10:55:56.120Z,95
2017-07-25T10:56:55.507Z,90
2017-07-25T10:57:55.899Z,90
2017-07-25T10:58:56.062Z,85
2017-07-25T10:59:55.829Z,75
2017-07-25T11:00:55.896Z,65
2017-07-25T11:01:55.710Z,50
2017-07-25T11:02:55.706Z,50
2017-07-25T11:03:55.768Z,50
2017-07-25T11:04:55.695Z,50
2017-07-25T11:05:55.453Z,55
2017-07-25T11:06:55.965Z,55
2017-07-25T11:07:55.976Z,55
2017-07-25T11:08:55.646Z,60
2017-07-25T11:09:55.399Z,65
2017-07-25T11:10:55.897Z,70
2017-07-25T11:11:55.634Z,80
2017-07-25T11:12:55.259Z,75
2017-07-25T11:13:55.244Z,65
2017-07-25T11:14:55.532Z,65
2017-07-25T11:15:55.505Z,65
2017-07-25T11:16:55.207Z,70
2017-07-25T11:17:55.626Z,75
2017-07-25T11:18:55.463Z,80
2017-07-25T11:19:55.513Z,85
2017-07-25T11:20:55.454Z,105
2017-07-25T11:21:55.142Z,110
2017-07-25T11:22:55.458Z,110
2017-07-25T11:23:55.463Z,105
2017-07-25T11:24:55.702Z,110
2017-07-25T11:25:55.687Z,125
2017-07-25T11:26:55.364Z,140
2017-07-25T11:27:55.668Z,150
2017-07-25T11:28:55.015Z,155
2017-07-25T11:29:55.347Z,140
2017-07-25T11:30:55.296Z,140
2017-07-25T11:31:54.966Z,120
2017-07-25T11:32:55.387Z,150
2017-07-25T11:33:55.303Z,180
2017-07-25T11:34:55.557Z,185
2017-07-25T11:35:55.535Z,180
2017-07-25T11:36:55.219Z,175
2017-07-25T11:37:55.193Z,155
2017-07-25T11:38:55.216Z,155
2017-07-25T11:39:55.498Z,140
2017-07-25T11:40:55.256Z,130
2017-07-25T11:41:55.566Z,125
2017-07-25T11:42:55.453Z,115
2017-07-25T11:43:55.449Z,110
2017-07-25T11:44:55.491Z,120
2017-07-25T11:45:55.409Z,125
2017-07-25T11:46:55.101Z,130
2017-07-25T11:47:55.447Z,140
2017-07-25T11:48:55.393Z,125
2017-07-25T11:49:55.478Z,95
2017-07-25T11:50:55.377Z,80
2017-07-25T11:51:55.321Z,95
2017-07-25T11:52:55.070Z,130
2017-07-25T11:53:55.411Z,140
2017-07-25T11:54:55.289Z,155
2017-07-25T11:55:54.667Z,155
2017-07-25T11:56:55.256Z,160
2017-07-25T11:57:54.986Z,150
2017-07-25T11:58:54.932Z,155
2017-07-25T11:59:54.596Z,160
2017-07-25T12:00:55.222Z,165
2017-07-25T12:01:55.218Z,165
2017-07-25T12:02:55.170Z,160
2017-07-25T12:03:55.222Z,165
2017-07-25T12:04:55.170Z,155
2017-07-25T12:05:55.218Z,150
2017-07-25T12:06:54.818Z,155
2017-07-25T12:07:54.787Z,150
2017-07-25T12:08:54.779Z,145
2017-07-25T12:09:54.755Z,140
2017-07-25T12:10:54.762Z,140
2017-07-25T12:11:54.746Z,140
2017-07-25T12:12:55.099Z,120
2017-07-25T12:13:54.718Z,95
2017-07-25T12:14:55.028Z,75
2017-07-25T12:15:54.709Z,65
2017-07-25T12:16:54.376Z,70
2017-07-25T12:17:54.958Z,70
2017-07-25T12:18:54.996Z,80
2017-07-25T12:19:54.318Z,85
2017-07-25T12:20:54.918Z,95
2017-07-25T12:21:54.618Z,95
2017-07-25T12:22:54.607Z,100
2017-07-25T12:23:54.571Z,115
2017-07-25T12:24:54.886Z,130
2017-07-25T12:25:54.555Z,140
2017-07-25T12:26:54.859Z,150
2017-07-25T12:27:54.836Z,150
2017-07-25T12:28:54.858Z,145
2017-07-25T12:29:54.318Z,145
2017-07-25T12:30:54.473Z,145
2017-07-25T12:31:54.777Z,140
2017-07-25T12:32:54.757Z,135
2017-07-25T12:33:54.763Z,135
2017-07-25T12:34:54.740Z,130
2017-07-25T12:35:54.426Z,135
2017-07-25T12:36:54.397Z,130
2017-07-25T12:37:54.699Z,125
2017-07-25T12:38:54.357Z,125
2017-07-25T12:39:54.357Z,125
2017-07-25T12:40:54.674Z,130
2017-07-25T12:41:54.327Z,130
2017-07-25T12:42:54.320Z,120
2017-07-25T12:43:54.629Z,120
2017-07-25T12:44:54.275Z,120
2017-07-25T12:45:54.594Z,120
2017-07-25T12:46:54.571Z,125
2017-07-25T12:47:54.549Z,130
2017-07-25T12:48:54.276Z,135
2017-07-25T12:49:54.288Z,135
2017-07-25T12:50:54.224Z,140
2017-07-25T12:51:53.889Z,135
2017-07-25T12:52:54.181Z,130
2017-07-25T12:53:54.183Z,130
2017-07-25T12:54:54.497Z,125
2017-07-25T12:55:54.255Z,125
2017-07-25T12:56:53.827Z,120
2017-07-25T12:57:53.809Z,110
2017-07-25T12:58:53.800Z,105
2017-07-25T12:59:54.177Z,100
2017-07-25T13:00:54.100Z,100
2017-07-25T13:01:53.791Z,95
2017-07-25T13:02:54.358Z,90
2017-07-25T13:03:54.052Z,90
2017-07-25T13:04:53.718Z,90
2017-07-25T13:05:54.029Z,90
2017-07-25T13:06:54.007Z,90
2017-07-25T13:07:54.097Z,95
2017-07-25T13:08:54.053Z,100
2017-07-25T13:09:53.983Z,105
2017-07-25T13:10:53.678Z,110
2017-07-25T13:11:54.297Z,115
2017-07-25T13:12:53.993Z,115
2017-07-25T13:13:54.217Z,115
2017-07-25T13:14:53.920Z,115
2017-07-25T13:15:53.909Z,115
2017-07-25T13:16:54.185Z,95
2017-07-25T13:17:54.208Z,85
2017-07-25T13:18:54.177Z,75
2017-07-25T13:19:53.850Z,75
2017-07-25T13:20:53.969Z,80
2017-07-25T13:21:54.149Z,90
2017-07-25T13:22:54.112Z,95
2017-07-25T13:23:54.103Z,85
2017-07-25T13:24:53.762Z,95
2017-07-25T13:25:54.048Z,95
2017-07-25T13:26:53.758Z,90
2017-07-25T13:27:53.758Z,90
2017-07-25T13:28:54.010Z,90
2017-07-25T13:29:54.049Z,70
2017-07-25T13:30:54.044Z,60
2017-07-25T13:31:53.969Z,60
2017-07-25T13:32:53.977Z,55
2017-07-25T13:33:53.986Z,55
2017-07-25T13:34:53.299Z,55
2017-07-25T13:35:53.957Z,60
2017-07-25T13:36:53.607Z,60
2017-07-25T13:37:53.582Z,65
2017-07-25T13:38:53.558Z,70
2017-07-25T13:39:52.951Z,75
2017-07-25T13:40:53.525Z,70
2017-07-25T13:41:53.532Z,70
2017-07-25T13:42:53.809Z,75
2017-07-25T13:43:53.484Z,75
2017-07-25T13:44:53.493Z,75
2017-07-25T13:45:53.470Z,80
2017-07-25T13:46:53.786Z,90
2017-07-25T13:47:53.747Z,95
2017-07-25T13:48:53.430Z,95
2017-07-25T13:49:53.707Z,95
2017-07-25T13:50:53.066Z,95
2017-07-25T13:51:53.096Z,95
2017-07-25T13:52:53.706Z,95
2017-07-25T13:53:53.044Z,95
2017-07-25T13:54:53.662Z,95
2017-07-25T13:55:53.041Z,85
2017-07-25T13:56:53.628Z,70
2017-07-25T13:57:53.029Z,65
2017-07-25T13:58:52.998Z,70
2017-07-25T13:59:53.598Z,75
2017-07-25T14:00:52.970Z,85
2017-07-25T14:01:52.958Z,90
2017-07-25T14:02:53.223Z,85
2017-07-25T14:03:52.910Z,80
2017-07-25T14:04:52.923Z,75
2017-07-25T14:05:53.500Z,75
2017-07-25T14:06:53.222Z,75
2017-07-25T14:07:52.853Z,75
2017-07-25T14:08:53.467Z,70
2017-07-25T14:09:53.469Z,65
2017-07-25T14:10:53.440Z,55
2017-07-25T14:11:53.098Z,50
2017-07-25T14:12:53.396Z,45
2017-07-25T14:13:53.388Z,40
2017-07-25T14:14:53.109Z,45
2017-07-25T14:15:53.047Z,50
2017-07-25T14:16:53.341Z,50
2017-07-25T14:17:53.041Z,55
2017-07-25T14:18:52.751Z,65
2017-07-25T14:19:53.022Z,70
2017-07-25T14:20:52.991Z,65
2017-07-25T14:21:52.974Z,60